Time;durP1;ratioP1;P1;durP2;ratioP2;P2;SDS_P1;SDS_P2;PMS_P1;PMS_P2;Temp;Humidity;BMP_temperature;BMP_pressure;BME280_temperature;BME280_humidity;BME280_pressure;Samples;Min_cycle;Max_cycle;Signal;HPM_P1;HPM_P2
2023/10/05 00:04:09;;;;;;;15.32;9.27;;;;;;;11.26;100.00;100927.81;10245531;28;20181;-76
2023/10/05 00:09:17;;;;;;;14.45;9.23;;;;;;;10.28;100.00;100803.09;10245606;29;20204;-76
2023/10/05 00:14:17;;;;;;;14.93;9.40;;;;;;;10.56;100.00;100837.53;10245091;29;20058;-76
2023/10/05 00:19:21;;;;;;;12.05;8.13;;;;;;;10.08;100.00;100775.06;10245516;28;20039;-76
2023/10/05 00:24:35;;;;;;;14.35;9.25;;;;;;;11.09;100.00;100932.19;10244341;29;20067;-76
2023/10/05 00:29:57;;;;;;;;;;;;;;;11.32;100.00;100950.28;10245078;28;20058;-76
2023/10/05 00:35:16;;;;;;;15.82;8.10;;;;;;;10.02;100.00;100792.44;10245061;28;19922;-76
2023/10/05 00:45:38;;;;;;;17.42;9.73;;;;;;;10.96;100.00;100984.94;10245630;29;20092;-76
2023/10/05 00:50:40;;;;;;;18.48;9.25;;;;;;;10.50;100.00;100894.75;10244830;28;20035;-76
2023/10/05 00:55:43;;;;;;;14.80;9.38;;;;;;;10.30;100.00;100873.84;10245733;28;20040;-76
2023/10/05 01:00:50;;;;;;;23.27;13.85;;;;;;;10.61;100.00;100914.09;10243978;29;20043;-76
2023/10/05 01:06:12;;;;;;;19.80;11.50;;;;;;;10.76;100.00;100941.75;10246265;28;20047;-76
2023/10/05 01:11:15;;;;;;;17.50;10.10;;;;;;;10.66;100.00;100877.25;10243392;28;20446;-76
2023/10/05 01:16:19;;;;;;;13.93;10.13;;;;;;;10.51;100.00;100856.56;10250329;29;20101;-76
2023/10/05 01:21:24;;;;;;;25.48;9.95;;;;;;;10.69;100.00;100901.69;10251765;28;20487;-76
2023/10/05 01:26:25;;;;;;;17.05;9.68;;;;;;;10.00;100.00;100796.22;10250897;28;20189;-76
2023/10/05 01:31:26;;;;;;;15.85;9.30;;;;;;;10.46;100.00;100890.72;10250302;29;20138;-76
2023/10/05 01:36:27;;;;;;;14.27;9.63;;;;;;;10.10;100.00;100846.56;10251467;28;20122;-76
2023/10/05 01:41:28;;;;;;;16.73;9.48;;;;;;;9.67;100.00;100787.97;10249209;28;20055;-76
2023/10/05 01:46:31;;;;;;;16.58;9.20;;;;;;;10.41;100.00;100934.66;10249873;29;20043;-76
2023/10/05 01:51:32;;;;;;;21.13;9.55;;;;;;;10.09;100.00;100898.00;10249713;28;20043;-76
2023/10/05 01:56:34;;;;;;;17.98;8.90;;;;;;;10.28;100.00;100938.53;10249088;29;20039;-76
2023/10/05 02:01:39;;;;;;;19.50;9.82;;;;;;;10.19;100.00;100951.84;10250463;28;20043;-76
2023/10/05 02:06:42;;;;;;;13.90;9.18;;;;;;;9.91;100.00;100920.06;10248647;29;20415;-76
2023/10/05 02:11:43;;;;;;;15.13;8.80;;;;;;;9.68;100.00;100894.91;10249003;29;20046;-76
2023/10/05 02:16:50;;;;;;;15.50;9.45;;;;;;;10.34;100.00;100997.34;10248231;29;20548;-76
2023/10/05 02:21:55;;;;;;;16.25;9.38;;;;;;;9.42;100.00;100877.03;10250609;28;20042;-77
2023/10/05 02:32:05;;;;;;;45.28;10.95;;;;;;;9.64;100.00;100910.31;10250060;29;20134;-76
2023/10/05 02:37:08;;;;;;;34.08;10.27;;;;;;;9.99;100.00;100983.00;10249328;28;20042;-76
2023/10/05 02:42:12;;;;;;;32.95;9.52;;;;;;;10.00;100.00;100980.19;10249208;28;20035;-77
2023/10/05 02:47:14;;;;;;;71.45;12.15;;;;;;;8.79;100.00;100789.44;10247335;28;20117;-76
2023/10/05 02:52:16;;;;;;;25.88;9.75;;;;;;;10.11;100.00;100999.53;10248581;28;20047;-76
2023/10/05 02:57:17;;;;;;;53.10;11.38;;;;;;;10.09;100.00;101012.16;10249249;28;20050;-76
2023/10/05 03:02:18;;;;;;;49.88;10.18;;;;;;;9.59;100.00;100961.13;10249032;29;20104;-76
2023/10/05 03:07:19;;;;;;;35.63;10.13;;;;;;;9.90;100.00;101016.59;10246610;28;20399;-76
2023/10/05 03:12:20;;;;;;;65.90;12.27;;;;;;;8.94;100.00;100883.38;10249432;29;20035;-78
2023/10/05 03:17:21;;;;;;;39.25;11.95;;;;;;;9.87;100.00;101032.81;10246875;29;20536;-76
2023/10/05 03:22:23;;;;;;;72.13;14.55;;;;;;;9.72;100.00;100997.94;10248677;28;20085;-76
2023/10/05 03:27:25;;;;;;;50.35;12.32;;;;;;;9.14;100.00;100923.91;10248256;28;20055;-76
2023/10/05 03:32:28;;;;;;;36.10;12.02;;;;;;;9.22;100.00;100928.50;10245738;28;20552;-77
2023/10/05 03:37:31;;;;;;;39.85;10.77;;;;;;;9.61;100.00;100990.16;10248225;28;20046;-76
2023/10/05 03:42:32;;;;;;;27.83;10.88;;;;;;;9.24;100.00;100902.66;10246241;28;20031;-76
2023/10/05 03:47:40;;;;;;;31.00;11.25;;;;;;;10.09;100.00;101020.94;10242677;28;20050;-82
2023/10/05 03:52:41;;;;;;;32.55;11.07;;;;;;;10.05;100.00;100969.97;10247222;28;20031;-76
2023/10/05 03:57:42;;;;;;;42.97;12.38;;;;;;;10.38;100.00;100985.44;10246171;28;20043;-75
2023/10/05 04:02:46;;;;;;;24.25;11.57;;;;;;;10.91;100.00;101027.94;10247197;28;20036;-74
2023/10/05 04:07:51;;;;;;;;;;;;;;;11.63;100.00;101046.38;10247527;29;20491;-83
2023/10/05 04:12:54;;;;;;;35.95;11.30;;;;;;;11.61;100.00;101013.81;10246843;28;19922;-79
2023/10/05 04:17:55;;;;;;;23.35;11.85;;;;;;;12.21;100.00;101032.38;10246057;28;20039;-74
2023/10/05 04:22:56;;;;;;;28.67;11.10;;;;;;;12.73;100.00;101047.31;10246578;28;20490;-71
2023/10/05 04:27:57;;;;;;;24.13;11.82;;;;;;;12.90;99.03;101022.34;10246726;28;20059;-73
2023/10/05 04:32:58;;;;;;;18.65;11.85;;;;;;;13.43;98.40;101055.69;10246299;28;20588;-74
2023/10/05 04:38:00;;;;;;;22.70;11.13;;;;;;;13.78;97.46;101048.25;10245932;29;20100;-72
2023/10/05 04:43:04;;;;;;;17.27;10.80;;;;;;;13.95;95.75;101016.97;10244410;28;20071;-76
2023/10/05 04:48:06;;;;;;;;;;;;;;;14.85;93.83;101061.94;10247053;28;20039;-76
2023/10/05 04:53:13;;;;;;;15.13;10.23;;;;;;;14.90;92.31;101059.56;10253506;28;20267;-76
2023/10/05 04:58:20;;;;;;;19.67;10.27;;;;;;;15.02;91.44;101058.13;10252421;28;20047;-76
2023/10/05 05:08:24;;;;;;;14.63;10.83;;;;;;;15.15;89.09;101019.22;10252905;29;20400;-76
2023/10/05 05:13:27;;;;;;;17.50;11.25;;;;;;;15.25;88.50;100998.34;10251664;28;20040;-76
2023/10/05 05:18:28;;;;;;;22.27;10.90;;;;;;;15.93;87.64;101061.59;10252409;29;20058;-76
2023/10/05 05:23:29;;;;;;;17.08;11.05;;;;;;;16.09;87.16;101062.41;10251355;28;20039;-76
2023/10/05 05:28:30;;;;;;;16.23;10.68;;;;;;;16.17;86.91;101063.13;10252017;28;20525;-77
2023/10/05 05:33:31;;;;;;;27.75;10.43;;;;;;;16.43;86.10;101068.00;10251008;29;20113;-78
2023/10/05 05:38:33;;;;;;;16.60;10.65;;;;;;;16.62;84.83;101065.72;10251668;28;20058;-78
2023/10/05 05:43:33;;;;;;;19.63;10.50;;;;;;;16.78;84.29;101064.66;10251149;28;20035;-76
2023/10/05 05:48:34;;;;;;;22.52;11.80;;;;;;;16.99;83.20;101066.53;10251228;28;20047;-76
2023/10/05 05:53:35;;;;;;;21.08;10.90;;;;;;;16.94;81.77;101016.13;10251542;28;20100;-77
2023/10/05 05:58:38;;;;;;;18.40;12.30;;;;;;;17.42;81.49;101053.06;10250961;28;20088;-78
2023/10/05 06:03:39;;;;;;;21.83;11.82;;;;;;;17.57;80.86;101056.47;10250325;28;20040;-77
2023/10/05 06:08:41;;;;;;;23.65;12.13;;;;;;;17.26;79.91;100969.09;10250578;28;20039;-76
2023/10/05 06:13:45;;;;;;;21.77;12.60;;;;;;;18.07;79.16;101056.34;10250945;28;20239;-77
2023/10/05 06:18:46;;;;;;;23.75;13.13;;;;;;;18.36;78.55;101063.28;10250283;29;20124;-76
2023/10/05 06:23:46;;;;;;;17.95;10.77;;;;;;;18.59;76.87;101062.97;10251092;28;20185;-77
2023/10/05 06:28:48;;;;;;;34.55;12.20;;;;;;;18.13;76.22;100948.84;10250423;28;20063;-76
2023/10/05 06:33:49;;;;;;;22.50;11.00;;;;;;;18.88;74.21;101048.34;10249868;28;20185;-76
2023/10/05 06:38:49;;;;;;;23.77;10.52;;;;;;;18.99;72.73;101015.41;10247820;29;20138;-76
2023/10/05 06:43:50;;;;;;;20.80;10.40;;;;;;;19.56;71.43;101048.09;10249345;28;20044;-76
2023/10/05 06:48:51;;;;;;;20.27;10.57;;;;;;;19.87;70.31;101047.44;10248666;28;20047;-77
2023/10/05 06:53:53;;;;;;;21.02;10.07;;;;;;;20.16;68.95;101045.25;10249151;29;20039;-77
2023/10/05 06:58:54;;;;;;;19.92;9.63;;;;;;;20.14;67.57;101009.59;10247186;29;20043;-77
2023/10/05 07:03:56;;;;;;;23.27;10.18;;;;;;;20.32;66.53;100990.81;10249067;28;20043;-79
2023/10/05 07:08:59;;;;;;;18.67;9.68;;;;;;;20.47;64.77;100982.44;10249030;28;20039;-76
2023/10/05 07:14:00;;;;;;;18.23;9.53;;;;;;;20.72;63.53;101006.78;10248100;28;20043;-76
2023/10/05 07:19:00;;;;;;;15.93;8.95;;;;;;;20.80;62.69;100995.72;10246457;29;20518;-77
2023/10/05 07:24:01;;;;;;;17.77;8.90;;;;;;;20.97;61.78;101004.09;10248031;28;20067;-78
2023/10/05 07:29:04;;;;;;;16.35;8.77;;;;;;;20.97;61.16;100940.09;10247405;29;20043;-77
2023/10/05 07:34:04;;;;;;;16.80;8.80;;;;;;;21.50;60.82;101008.19;10247873;29;20035;-76
2023/10/05 07:39:11;;;;;;;14.82;8.50;;;;;;;21.27;59.98;100944.81;10247099;28;20047;-77
2023/10/05 07:44:12;;;;;;;24.83;8.57;;;;;;;21.81;59.23;101001.84;10247666;28;20039;-77
2023/10/05 07:49:13;;;;;;;29.88;12.23;;;;;;;21.83;58.00;100978.91;10247463;28;20074;-77
2023/10/05 07:54:14;;;;;;;15.38;9.60;;;;;;;22.00;57.38;100987.22;10247031;28;20129;-77
2023/10/05 07:59:14;;;;;;;21.15;9.75;;;;;;;21.74;54.91;100928.88;10246500;28;20051;-78
2023/10/05 08:04:16;;;;;;;25.92;10.00;;;;;;;21.97;53.88;100946.28;10246964;28;20406;-77
2023/10/05 08:09:20;;;;;;;21.08;9.50;;;;;;;22.46;52.99;100990.38;10246969;28;20047;-78
2023/10/05 08:14:21;;;;;;;24.70;9.75;;;;;;;22.42;52.13;100967.53;10246993;28;20035;-77
2023/10/05 08:19:25;;;;;;;25.17;10.20;;;;;;;22.63;51.44;100990.53;10246480;28;20044;-77
2023/10/05 08:24:26;;;;;;;31.83;10.52;;;;;;;22.25;50.32;100911.34;10245864;28;20059;-77
2023/10/05 08:29:28;;;;;;;27.50;13.30;;;;;;;22.77;50.20;100948.66;10246802;28;20474;-77
2023/10/05 08:34:32;;;;;;;23.25;10.52;;;;;;;22.98;48.86;100975.19;10246180;28;20070;-78
2023/10/05 08:39:35;;;;;;;27.85;16.70;;;;;;;23.00;48.68;100980.38;10245836;28;20132;-77
2023/10/05 08:44:38;;;;;;;30.00;11.57;;;;;;;22.81;48.08;100916.50;10245400;28;20039;-77
2023/10/05 08:49:43;;;;;;;17.17;9.45;;;;;;;23.10;47.79;100969.78;10246340;28;20058;-77
2023/10/05 08:54:45;;;;;;;27.10;11.52;;;;;;;22.64;47.15;100887.41;10244084;29;20070;-77
2023/10/05 08:59:47;;;;;;;30.17;19.60;;;;;;;22.89;46.49;100935.94;10245691;28;20050;-77
2023/10/05 09:04:57;;;;;;;34.85;18.42;;;;;;;22.94;45.52;100951.47;10246418;28;20039;-77
2023/10/05 09:09:58;;;;;;;21.38;11.63;;;;;;;22.86;45.71;100914.75;10246154;28;20105;-77
2023/10/05 09:20:24;;;;;;;22.40;10.90;;;;;;;23.24;44.12;100906.16;10245501;28;20054;-78
2023/10/05 09:25:44;;;;;;;31.83;13.13;;;;;;;23.35;44.61;100906.34;10245107;28;20063;-77
2023/10/05 09:30:55;;;;;;;21.95;10.80;;;;;;;23.31;44.65;100867.25;10243572;28;20096;-78
2023/10/05 09:36:06;;;;;;;18.70;11.27;;;;;;;23.55;43.84;100878.84;10249297;28;20093;-77
2023/10/05 09:41:08;;;;;;;32.30;12.90;;;;;;;23.85;43.54;100900.34;10250257;29;20121;-78
2023/10/05 09:46:10;;;;;;;23.33;12.93;;;;;;;23.73;41.42;100872.44;10251438;28;20050;-79
2023/10/05 09:51:13;;;;;;;31.85;18.38;;;;;;;23.83;41.14;100889.72;10249809;29;20078;-78
2023/10/05 09:56:15;;;;;;;28.30;13.32;;;;;;;23.69;39.72;100869.34;10251079;28;20043;-78
2023/10/05 10:01:21;;;;;;;22.33;12.15;;;;;;;23.71;39.83;100875.38;10250833;28;20043;-78
2023/10/05 10:06:28;;;;;;;24.50;11.98;;;;;;;23.73;40.44;100875.16;10250225;28;20047;-78
2023/10/05 10:11:31;;;;;;;21.48;12.73;;;;;;;23.62;40.02;100845.06;10250479;28;20043;-77
2023/10/05 10:16:33;;;;;;;22.13;11.88;;;;;;;23.80;40.15;100854.94;10251091;28;20043;-78
2023/10/05 10:21:36;;;;;;;24.05;12.10;;;;;;;24.07;40.05;100862.47;10250436;28;20047;-77
2023/10/05 10:26:45;;;;;;;22.02;12.63;;;;;;;23.90;39.10;100841.56;10249966;28;20055;-78
2023/10/05 10:32:18;;;;;;;27.20;13.23;;;;;;;24.08;40.67;100862.25;10249883;28;20134;-77
2023/10/05 10:37:38;;;;;;;28.08;14.23;;;;;;;24.07;40.75;100857.84;10249876;28;20522;-78
2023/10/05 10:43:06;;;;;;;28.67;14.98;;;;;;;23.97;40.53;100854.16;10248727;29;20042;-78
2023/10/05 10:48:21;;;;;;;28.33;13.70;;;;;;;23.96;40.79;100858.75;10247937;28;20668;-78
2023/10/05 10:53:25;;;;;;;25.15;12.80;;;;;;;23.97;40.51;100857.69;10248641;28;20039;-78
2023/10/05 10:58:30;;;;;;;24.42;13.40;;;;;;;23.82;41.59;100835.72;10249406;28;20050;-78
2023/10/05 11:03:32;;;;;;;25.20;13.57;;;;;;;23.98;40.96;100855.78;10248696;29;20407;-78
2023/10/05 11:08:40;;;;;;;27.50;12.95;;;;;;;23.99;40.71;100844.72;10248256;28;20045;-78
2023/10/05 11:13:48;;;;;;;26.42;12.98;;;;;;;23.81;40.72;100817.78;10248610;28;20058;-78
2023/10/05 11:18:57;;;;;;;24.65;12.40;;;;;;;23.49;40.24;100780.31;10248891;28;20050;-78
2023/10/05 11:24:08;;;;;;;22.00;12.50;;;;;;;23.68;38.52;100816.16;10248370;28;20073;-78
2023/10/05 11:29:15;;;;;;;25.90;11.65;;;;;;;23.64;38.76;100798.75;10247355;28;20066;-79
2023/10/05 11:34:19;;;;;;;25.67;12.95;;;;;;;23.62;38.75;100812.53;10247037;29;20453;-76
2023/10/05 11:39:27;;;;;;;25.55;12.98;;;;;;;23.44;38.91;100772.06;10248159;28;20035;-76
2023/10/05 11:44:28;;;;;;;21.58;12.07;;;;;;;23.65;38.32;100806.63;10247646;28;20124;-75
2023/10/05 11:49:30;;;;;;;24.23;11.63;;;;;;;23.18;38.08;100733.66;10247525;28;20133;-75
2023/10/05 11:54:31;;;;;;;34.30;13.65;;;;;;;23.51;36.53;100796.31;10246889;28;20049;-76
2023/10/05 11:59:36;;;;;;;28.13;12.10;;;;;;;23.46;36.57;100813.31;10247185;28;20498;-77
2023/10/05 12:04:39;;;;;;;23.63;12.20;;;;;;;23.40;36.40;100806.97;10245303;29;20411;-77
2023/10/05 12:09:43;;;;;;;21.50;12.10;;;;;;;23.35;37.01;100803.34;10246971;29;20046;-77
2023/10/05 12:14:44;;;;;;;34.95;13.05;;;;;;;22.86;36.35;100722.41;10244475;29;20051;-80
2023/10/05 12:19:45;;;;;;;23.05;12.63;;;;;;;23.02;36.25;100750.66;10243169;28;20089;-76
2023/10/05 12:24:46;;;;;;;22.20;11.35;;;;;;;23.36;35.74;100796.84;10240673;28;20197;-75
2023/10/05 12:29:46;;;;;;;23.08;9.65;;;;;;;23.30;35.50;100805.94;10241365;28;20028;-76
2023/10/05 12:34:48;;;;;;;21.15;10.25;;;;;;;22.70;34.79;100718.53;10240846;29;20055;-77
2023/10/05 12:39:48;;;;;;;18.77;8.85;;;;;;;23.06;34.23;100795.16;10228884;28;20043;-77
2023/10/05 12:44:51;;;;;;;18.17;8.88;;;;;;;23.03;33.60;100814.63;10234002;29;20043;-75
2023/10/05 12:49:51;;;;;;;17.50;8.48;;;;;;;22.81;33.53;100795.44;10238300;28;20047;-76
2023/10/05 12:54:53;;;;;;;25.25;11.63;;;;;;;22.74;32.99;100806.41;10241104;28;20043;-76
2023/10/05 12:59:54;;;;;;;20.05;7.78;;;;;;;22.62;33.03;100811.00;10243516;28;20050;-76
2023/10/05 13:04:55;;;;;;;18.40;7.32;;;;;;;22.50;32.19;100808.31;10243015;28;20423;-76
2023/10/05 13:10:08;;;;;;;36.75;8.38;;;;;;;21.75;32.53;100705.28;10248423;28;20502;-75
2023/10/05 13:15:09;;;;;;;17.80;7.10;;;;;;;21.96;31.91;100760.72;10244499;28;20051;-76
2023/10/05 13:20:14;;;;;;;17.55;7.40;;;;;;;22.13;32.22;100825.75;10249405;29;20503;-76
2023/10/05 13:25:19;;;;;;;36.35;8.73;;;;;;;21.52;33.29;100757.41;10251835;28;20519;-75
2023/10/05 13:30:23;;;;;;;15.65;7.43;;;;;;;21.51;33.09;100780.06;10247705;28;20047;-76
2023/10/05 13:35:29;;;;;;;;;;;;;;;21.91;34.31;100844.41;10251435;29;20051;-76
2023/10/05 13:40:34;;;;;;;27.77;7.78;;;;;;;21.51;34.54;100842.25;10252033;28;20397;-77
2023/10/05 13:45:36;;;;;;;50.58;8.80;;;;;;;20.97;35.73;100807.75;10249288;29;20047;-76
2023/10/05 13:50:37;;;;;;;25.30;7.32;;;;;;;21.07;35.79;100838.81;10250388;28;20130;-76
2023/10/05 13:55:38;;;;;;;22.42;7.38;;;;;;;20.49;35.83;100788.69;10250453;28;20074;-76
2023/10/05 14:00:42;;;;;;;25.27;7.95;;;;;;;20.65;36.82;100861.06;10250888;28;20425;-76
2023/10/05 14:05:54;;;;;;;22.27;7.75;;;;;;;20.09;37.42;100805.25;10250870;28;20065;-77
2023/10/05 14:10:56;;;;;;;41.85;10.23;;;;;;;19.99;38.97;100853.47;10250536;28;20043;-76
2023/10/05 14:16:00;;;;;;;25.30;8.90;;;;;;;19.77;40.26;100871.81;10249840;28;20065;-76
2023/10/05 14:21:02;;;;;;;22.50;9.32;;;;;;;19.11;41.94;100825.25;10248229;29;20134;-77
2023/10/05 14:26:03;;;;;;;44.53;10.27;;;;;;;18.93;44.12;100854.72;10250159;28;20070;-76
2023/10/05 14:31:06;;;;;;;34.42;10.77;;;;;;;18.52;44.73;100861.16;10250723;28;20050;-76
2023/10/05 14:36:11;;;;;;;83.97;14.10;;;;;;;18.29;47.21;100885.78;10248654;29;20396;-76
2023/10/05 14:41:13;;;;;;;42.78;14.20;;;;;;;18.01;48.86;100885.94;10249011;28;20172;-76
2023/10/05 14:46:14;;;;;;;85.53;14.23;;;;;;;17.27;50.61;100832.97;10249546;28;20419;-76
2023/10/05 14:51:18;;;;;;;34.67;11.68;;;;;;;16.89;51.91;100822.66;10248787;28;20043;-78
2023/10/05 14:56:26;;;;;;;46.55;10.98;;;;;;;16.93;53.12;100890.16;10249090;28;20035;-76
2023/10/05 15:01:27;;;;;;;60.15;12.50;;;;;;;16.10;54.88;100815.66;10248835;28;20142;-76
2023/10/05 15:06:29;;;;;;;42.25;12.27;;;;;;;16.03;56.29;100843.41;10249373;28;20054;-76
2023/10/05 15:11:30;;;;;;;108.72;16.48;;;;;;;16.17;58.00;100906.84;10247645;29;20428;-76
2023/10/05 15:16:31;;;;;;;33.30;13.70;;;;;;;15.79;58.46;100877.56;10249340;28;20181;-77
2023/10/05 15:21:32;;;;;;;48.58;12.52;;;;;;;15.73;59.04;100900.63;10249113;28;20518;-75
2023/10/05 15:26:34;;;;;;;27.88;10.80;;;;;;;15.19;58.80;100838.50;10248579;28;20063;-76
2023/10/05 15:31:36;;;;;;;23.92;10.60;;;;;;;15.23;59.49;100869.25;10247624;28;20062;-76
2023/10/05 15:36:38;;;;;;;67.28;12.85;;;;;;;15.24;61.69;100911.88;10246689;28;20047;-77
2023/10/05 15:41:42;;;;;;;40.20;11.65;;;;;;;15.07;63.08;100939.81;10246176;29;20133;-79
2023/10/05 15:46:43;;;;;;;48.15;12.18;;;;;;;14.89;64.31;100932.16;10245305;29;20126;-76
2023/10/05 15:51:45;;;;;;;52.20;12.77;;;;;;;14.70;65.83;100946.03;10243247;28;20554;-81
2023/10/05 15:56:46;;;;;;;55.30;11.32;;;;;;;14.52;66.59;100935.66;10243880;28;20047;-81
2023/10/05 16:01:55;;;;;;;32.30;10.45;;;;;;;14.23;67.30;100939.00;10240441;29;20086;-81
2023/10/05 16:07:09;;;;;;;29.77;10.25;;;;;;;14.18;71.22;100941.38;10246123;29;20077;-82
2023/10/05 16:12:20;;;;;;;29.98;10.75;;;;;;;13.72;68.21;100899.41;10242321;29;20059;-81
2023/10/05 16:17:35;;;;;;;24.13;9.57;;;;;;;13.76;69.03;100930.09;10243069;28;20511;-83
2023/10/05 16:22:40;;;;;;;33.25;11.60;;;;;;;13.62;69.42;100925.50;10246588;28;20396;-78
2023/10/05 16:27:45;;;;;;;25.40;10.55;;;;;;;13.22;71.73;100887.22;10245456;28;20066;-76
2023/10/05 16:32:49;;;;;;;37.03;13.60;;;;;;;13.18;71.86;100920.59;10246200;28;20050;-76
2023/10/05 16:37:59;;;;;;;44.58;18.92;;;;;;;12.90;71.27;100893.50;10245172;29;20134;-76
2023/10/05 16:43:02;;;;;;;53.30;20.33;;;;;;;13.18;71.85;100950.78;10244589;28;20462;-76
2023/10/05 16:48:03;;;;;;;36.13;13.93;;;;;;;13.00;72.14;100920.81;10246909;28;20098;-76
2023/10/05 16:53:05;;;;;;;32.40;13.70;;;;;;;12.99;73.19;100959.16;10246314;28;20415;-77
2023/10/05 16:58:06;;;;;;;29.52;13.90;;;;;;;12.84;74.12;100944.84;10245692;28;20054;-77
2023/10/05 17:03:07;;;;;;;32.15;13.63;;;;;;;12.76;74.04;100941.16;10244901;28;20479;-74
2023/10/05 17:08:09;;;;;;;29.40;13.93;;;;;;;12.65;74.00;100944.16;10244724;29;20138;-79
2023/10/05 17:13:10;;;;;;;35.40;13.20;;;;;;;12.34;74.08;100906.69;10245104;29;20122;-75
2023/10/05 17:18:14;;;;;;;43.90;13.87;;;;;;;12.50;74.44;100927.19;10245108;29;20184;-75
2023/10/05 17:23:14;;;;;;;39.83;12.40;;;;;;;12.34;74.56;100910.19;10244641;28;20039;-75
2023/10/05 17:28:15;;;;;;;36.50;12.13;;;;;;;12.58;74.50;100951.16;10244188;28;20070;-76
2023/10/05 17:33:16;;;;;;;29.65;12.63;;;;;;;12.57;76.08;100960.19;10244603;28;20073;-76
2023/10/05 17:38:17;;;;;;;46.17;12.80;;;;;;;12.42;77.17;100962.66;10244488;28;20049;-76
2023/10/05 17:43:17;;;;;;;56.50;13.23;;;;;;;12.15;77.36;100938.97;10244660;28;20530;-75
2023/10/05 17:48:19;;;;;;;48.13;13.55;;;;;;;12.10;77.79;100966.09;10241737;28;20043;-76
2023/10/05 17:53:24;;;;;;;44.38;13.57;;;;;;;11.78;80.54;100919.69;10242971;28;20047;-81
2023/10/05 17:58:40;;;;;;;37.70;14.25;;;;;;;11.94;78.71;100966.88;10244585;29;20518;-75
2023/10/05 18:03:40;;;;;;;47.30;15.60;;;;;;;11.39;79.22;100898.09;10251094;28;20039;-78
2023/10/05 18:08:50;;;;;;;187.55;23.58;;;;;;;11.64;79.38;100944.28;10249440;29;20096;-75
2023/10/05 18:13:53;;;;;;;69.13;19.30;;;;;;;11.25;79.64;100907.53;10247026;29;20039;-76
2023/10/05 18:18:55;;;;;;;63.45;17.15;;;;;;;11.00;80.42;100877.28;10249793;28;20043;-76
2023/10/05 18:23:56;;;;;;;62.45;16.02;;;;;;;11.05;80.45;100884.81;10249023;29;20051;-77
2023/10/05 18:29:00;;;;;;;45.75;13.70;;;;;;;11.47;81.51;100975.31;10248337;29;20438;-76
2023/10/05 18:34:01;;;;;;;38.22;13.98;;;;;;;11.12;81.34;100933.69;10247966;28;20087;-76
2023/10/05 18:39:02;;;;;;;47.53;14.85;;;;;;;11.31;81.08;100973.38;10249861;28;20128;-77
2023/10/05 18:44:02;;;;;;;28.30;13.05;;;;;;;10.83;80.60;100896.78;10248998;28;20042;-76
2023/10/05 18:49:07;;;;;;;38.65;13.32;;;;;;;11.10;81.45;100957.81;10250151;28;20046;-74
2023/10/05 18:54:08;;;;;;;52.20;15.38;;;;;;;11.05;79.95;100968.06;10249830;28;20102;-75
2023/10/05 18:59:09;;;;;;;61.38;16.85;;;;;;;11.07;80.72;100982.06;10249295;28;20415;-76
2023/10/05 19:04:10;;;;;;;43.22;15.05;;;;;;;10.85;80.77;100959.44;10248608;29;20045;-75
2023/10/05 19:09:11;;;;;;;48.25;14.75;;;;;;;10.86;81.02;100960.25;10248163;28;20043;-79
2023/10/05 19:14:12;;;;;;;46.47;14.30;;;;;;;10.49;80.93;100906.34;10247480;28;20437;-77
2023/10/05 19:19:13;;;;;;;40.05;12.35;;;;;;;10.94;81.12;100976.28;10246898;28;20138;-75
2023/10/05 19:24:14;;;;;;;34.30;11.60;;;;;;;10.73;80.93;100950.88;10247655;28;20411;-77
2023/10/05 19:29:16;;;;;;;35.60;11.77;;;;;;;10.59;80.63;100927.53;10248248;28;20051;-81
2023/10/05 19:34:17;;;;;;;57.70;12.23;;;;;;;10.27;80.97;100880.28;10247636;28;20134;-80
2023/10/05 19:39:18;;;;;;;25.65;11.18;;;;;;;10.47;81.19;100918.97;10246784;28;20380;-73
2023/10/05 19:44:20;;;;;;;30.33;11.23;;;;;;;10.65;81.14;100947.31;10247816;28;20125;-81
2023/10/05 19:49:24;;;;;;;26.92;11.73;;;;;;;10.78;80.91;100963.72;10244583;28;20031;-82
2023/10/05 19:54:25;;;;;;;46.85;12.68;;;;;;;10.68;81.37;100968.28;10247228;29;20040;-77
2023/10/05 19:59:33;;;;;;;42.30;12.77;;;;;;;10.20;81.96;100903.06;10244193;28;20054;-88
2023/10/05 20:04:34;;;;;;;27.90;12.15;;;;;;;10.36;82.43;100934.31;10245240;28;20065;-72
2023/10/05 20:09:35;;;;;;;54.80;12.48;;;;;;;10.42;82.27;100958.44;10246196;28;20043;-74
2023/10/05 20:14:36;;;;;;;33.33;12.23;;;;;;;10.27;82.72;100950.16;10245982;28;20039;-74
2023/10/05 20:19:36;;;;;;;33.17;14.05;;;;;;;10.22;82.78;100959.53;10246943;28;20047;-73
2023/10/05 20:24:37;;;;;;;43.53;17.67;;;;;;;9.58;82.85;100858.66;10245858;28;20102;-72
2023/10/05 20:29:39;;;;;;;38.08;14.82;;;;;;;9.97;82.88;100937.19;10246453;29;20042;-73
2023/10/05 20:34:43;;;;;;;56.63;14.23;;;;;;;9.98;83.67;100938.84;10246271;28;20074;-74
2023/10/05 20:39:44;;;;;;;62.47;15.27;;;;;;;9.77;83.54;100909.94;10245446;28;20134;-74
2023/10/05 20:44:46;;;;;;;60.42;12.95;;;;;;;9.89;83.97;100937.09;10246014;28;20065;-73
2023/10/05 20:49:46;;;;;;;35.65;12.30;;;;;;;9.84;83.81;100937.53;10244341;28;20088;-76
2023/10/05 20:54:47;;;;;;;59.03;13.18;;;;;;;9.30;84.23;100854.34;10246280;28;20097;-76
2023/10/05 21:00:17;;;;;;;48.10;14.80;;;;;;;9.74;84.31;100929.63;10244795;29;20063;-76
2023/10/05 21:05:18;;;;;;;87.30;18.20;;;;;;;9.48;84.48;100876.47;10245550;28;20121;-75
2023/10/05 21:10:19;;;;;;;64.35;17.85;;;;;;;9.34;84.46;100845.13;10245677;28;20047;-76
2023/10/05 21:15:20;;;;;;;47.67;17.05;;;;;;;9.33;84.12;100849.63;10243964;28;20043;-75
2023/10/05 21:20:22;;;;;;;44.92;16.40;;;;;;;9.82;84.69;100944.84;10245129;28;20051;-75
2023/10/05 21:25:22;;;;;;;80.38;17.13;;;;;;;9.68;84.92;100914.31;10244705;28;20569;-76
2023/10/05 21:30:23;;;;;;;51.33;16.33;;;;;;;9.52;84.45;100896.41;10247186;28;20043;-76
2023/10/05 21:35:24;;;;;;;58.72;17.17;;;;;;;9.72;84.28;100949.34;10251681;29;20074;-78
2023/10/05 21:40:25;;;;;;;43.67;16.83;;;;;;;9.33;84.52;100907.09;10251300;28;20043;-75
2023/10/05 21:45:26;;;;;;;37.25;15.35;;;;;;;9.52;84.81;100952.09;10251548;28;20495;-75
2023/10/05 21:50:27;;;;;;;42.33;14.50;;;;;;;9.55;84.83;100937.72;10249573;29;20039;-75
2023/10/05 21:55:28;;;;;;;51.38;14.27;;;;;;;9.04;84.93;100876.25;10250627;28;20126;-76
2023/10/05 22:05:42;;;;;;;39.50;14.18;;;;;;;8.84;85.00;100875.44;10251192;28;20047;-75
2023/10/05 22:10:44;;;;;;;39.28;14.73;;;;;;;9.20;85.38;100938.41;10250146;28;20050;-75
2023/10/05 22:15:45;;;;;;;30.95;13.80;;;;;;;8.88;85.48;100897.19;10250688;28;20039;-75
2023/10/05 22:20:46;;;;;;;52.13;15.32;;;;;;;8.96;86.06;100926.47;10248918;29;20047;-76
2023/10/05 22:25:46;;;;;;;31.77;14.20;;;;;;;8.73;85.94;100891.50;10250393;28;20142;-75
2023/10/05 22:30:48;;;;;;;30.73;14.68;;;;;;;9.00;86.26;100914.59;10250127;28;20100;-75
2023/10/05 22:35:48;;;;;;;33.83;14.32;;;;;;;9.13;86.15;100931.03;10249357;28;20054;-75
2023/10/05 22:40:49;;;;;;;34.97;13.88;;;;;;;8.93;85.92;100910.03;10248711;29;20128;-75
2023/10/05 22:45:50;;;;;;;34.53;14.07;;;;;;;8.97;85.92;100929.94;10250093;28;20105;-75
2023/10/05 22:50:51;;;;;;;28.70;12.93;;;;;;;8.66;85.95;100891.25;10248984;28;20044;-75
2023/10/05 22:55:54;;;;;;;33.65;12.73;;;;;;;8.74;86.55;100913.56;10249445;28;20043;-75
2023/10/05 23:00:55;;;;;;;33.15;12.93;;;;;;;8.38;86.00;100845.31;10249147;28;20138;-75
2023/10/05 23:05:55;;;;;;;29.80;14.48;;;;;;;8.77;86.17;100906.16;10247702;28;20035;-78
2023/10/05 23:10:56;;;;;;;34.20;13.52;;;;;;;8.66;86.01;100904.50;10248847;28;20126;-76
2023/10/05 23:15:57;;;;;;;35.60;15.07;;;;;;;8.52;86.56;100893.50;10248594;29;20045;-75